sensor_id;sensor_type;location;lat;lon;timestamp;P1;durP1;ratioP1;P2;durP2;ratioP2
76131;SDS011;64877;50.994;13.650;2023-01-28T00:00:30;25.27;;;12.38;;
76131;SDS011;64877;50.994;13.650;2023-01-28T00:02:55;23.00;;;11.60;;
76131;SDS011;64877;50.994;13.650;2023-01-28T00:05:21;21.75;;;11.30;;
76131;SDS011;64877;50.994;13.650;2023-01-28T00:10:15;21.05;;;10.27;;
76131;SDS011;64877;50.994;13.650;2023-01-28T00:12:40;20.45;;;10.75;;
76131;SDS011;64877;50.994;13.650;2023-01-28T00:15:06;16.73;;;9.82;;
76131;SDS011;64877;50.994;13.650;2023-01-28T00:17:31;18.13;;;10.75;;
76131;SDS011;64877;50.994;13.650;2023-01-28T00:19:57;20.95;;;9.82;;
76131;SDS011;64877;50.994;13.650;2023-01-28T00:22:22;15.68;;;8.23;;
76131;SDS011;64877;50.994;13.650;2023-01-28T00:24:48;13.75;;;8.82;;
76131;SDS011;64877;50.994;13.650;2023-01-28T00:27:13;12.35;;;6.40;;
76131;SDS011;64877;50.994;13.650;2023-01-28T00:29:38;12.15;;;7.28;;
76131;SDS011;64877;50.994;13.650;2023-01-28T00:32:04;11.93;;;6.80;;
76131;SDS011;64877;50.994;13.650;2023-01-28T00:34:30;12.73;;;7.07;;
76131;SDS011;64877;50.994;13.650;2023-01-28T00:36:55;11.57;;;7.32;;
76131;SDS011;64877;50.994;13.650;2023-01-28T00:39:24;10.13;;;6.80;;
76131;SDS011;64877;50.994;13.650;2023-01-28T00:41:51;10.65;;;6.82;;
76131;SDS011;64877;50.994;13.650;2023-01-28T00:44:17;10.40;;;7.00;;
76131;SDS011;64877;50.994;13.650;2023-01-28T00:46:44;9.35;;;6.80;;
76131;SDS011;64877;50.994;13.650;2023-01-28T00:49:09;14.32;;;7.75;;
76131;SDS011;64877;50.994;13.650;2023-01-28T00:51:35;15.98;;;7.10;;
76131;SDS011;64877;50.994;13.650;2023-01-28T00:54:01;13.00;;;7.07;;
76131;SDS011;64877;50.994;13.650;2023-01-28T00:56:26;9.27;;;6.15;;
76131;SDS011;64877;50.994;13.650;2023-01-28T00:58:52;13.35;;;7.38;;
76131;SDS011;64877;50.994;13.650;2023-01-28T01:03:43;9.43;;;6.23;;
76131;SDS011;64877;50.994;13.650;2023-01-28T01:06:09;13.05;;;7.00;;
76131;SDS011;64877;50.994;13.650;2023-01-28T01:08:36;11.50;;;6.38;;
76131;SDS011;64877;50.994;13.650;2023-01-28T01:11:04;11.23;;;6.82;;
76131;SDS011;64877;50.994;13.650;2023-01-28T01:13:31;11.23;;;6.60;;
76131;SDS011;64877;50.994;13.650;2023-01-28T01:16:11;8.05;;;5.40;;
76131;SDS011;64877;50.994;13.650;2023-01-28T01:18:39;10.85;;;6.93;;
76131;SDS011;64877;50.994;13.650;2023-01-28T01:21:15;12.00;;;6.05;;
76131;SDS011;64877;50.994;13.650;2023-01-28T01:23:42;10.40;;;6.47;;
76131;SDS011;64877;50.994;13.650;2023-01-28T01:26:08;10.07;;;5.90;;
76131;SDS011;64877;50.994;13.650;2023-01-28T01:28:33;14.02;;;7.25;;
76131;SDS011;64877;50.994;13.650;2023-01-28T01:31:03;11.00;;;7.43;;
76131;SDS011;64877;50.994;13.650;2023-01-28T01:33:30;13.35;;;7.60;;
76131;SDS011;64877;50.994;13.650;2023-01-28T01:35:56;10.77;;;6.80;;
76131;SDS011;64877;50.994;13.650;2023-01-28T01:38:23;13.23;;;7.43;;
76131;SDS011;64877;50.994;13.650;2023-01-28T01:40:48;13.93;;;7.75;;
76131;SDS011;64877;50.994;13.650;2023-01-28T01:43:18;13.18;;;7.15;;
76131;SDS011;64877;50.994;13.650;2023-01-28T01:45:46;20.90;;;8.25;;
76131;SDS011;64877;50.994;13.650;2023-01-28T01:48:37;11.77;;;7.35;;
76131;SDS011;64877;50.994;13.650;2023-01-28T01:51:03;15.40;;;7.68;;
76131;SDS011;64877;50.994;13.650;2023-01-28T01:53:36;14.38;;;8.20;;
76131;SDS011;64877;50.994;13.650;2023-01-28T01:56:07;16.77;;;8.77;;
76131;SDS011;64877;50.994;13.650;2023-01-28T01:58:35;16.60;;;9.23;;
76131;SDS011;64877;50.994;13.650;2023-01-28T02:01:03;13.18;;;8.20;;
76131;SDS011;64877;50.994;13.650;2023-01-28T02:03:35;16.10;;;8.27;;
76131;SDS011;64877;50.994;13.650;2023-01-28T02:06:07;15.35;;;9.30;;
76131;SDS011;64877;50.994;13.650;2023-01-28T02:08:33;15.40;;;8.35;;
76131;SDS011;64877;50.994;13.650;2023-01-28T02:11:02;12.50;;;7.72;;
76131;SDS011;64877;50.994;13.650;2023-01-28T02:13:38;15.32;;;8.50;;
76131;SDS011;64877;50.994;13.650;2023-01-28T02:16:07;15.07;;;8.38;;
76131;SDS011;64877;50.994;13.650;2023-01-28T02:18:35;12.75;;;7.13;;
76131;SDS011;64877;50.994;13.650;2023-01-28T02:23:49;12.48;;;7.10;;
76131;SDS011;64877;50.994;13.650;2023-01-28T02:31:37;16.52;;;7.72;;
76131;SDS011;64877;50.994;13.650;2023-01-28T02:34:13;11.02;;;7.00;;
76131;SDS011;64877;50.994;13.650;2023-01-28T02:36:43;13.98;;;6.70;;
76131;SDS011;64877;50.994;13.650;2023-01-28T02:39:15;10.90;;;7.32;;
76131;SDS011;64877;50.994;13.650;2023-01-28T02:42:03;8.75;;;6.15;;
76131;SDS011;64877;50.994;13.650;2023-01-28T02:44:42;11.90;;;6.15;;
76131;SDS011;64877;50.994;13.650;2023-01-28T02:47:11;13.13;;;6.63;;
76131;SDS011;64877;50.994;13.650;2023-01-28T02:49:56;12.98;;;6.60;;
76131;SDS011;64877;50.994;13.650;2023-01-28T02:55:38;10.57;;;6.40;;
76131;SDS011;64877;50.994;13.650;2023-01-28T03:03:33;13.88;;;7.57;;
76131;SDS011;64877;50.994;13.650;2023-01-28T03:06:21;11.02;;;7.43;;
76131;SDS011;64877;50.994;13.650;2023-01-28T03:08:55;12.38;;;7.05;;
76131;SDS011;64877;50.994;13.650;2023-01-28T03:12:00;12.23;;;7.05;;
76131;SDS011;64877;50.994;13.650;2023-01-28T03:14:47;17.70;;;8.02;;
76131;SDS011;64877;50.994;13.650;2023-01-28T03:17:42;13.30;;;7.60;;
76131;SDS011;64877;50.994;13.650;2023-01-28T03:20:28;13.57;;;8.25;;
76131;SDS011;64877;50.994;13.650;2023-01-28T03:23:20;14.02;;;8.18;;
76131;SDS011;64877;50.994;13.650;2023-01-28T03:26:08;16.13;;;7.47;;
76131;SDS011;64877;50.994;13.650;2023-01-28T03:28:54;11.48;;;6.78;;
76131;SDS011;64877;50.994;13.650;2023-01-28T03:31:40;10.65;;;7.05;;
76131;SDS011;64877;50.994;13.650;2023-01-28T03:34:25;12.27;;;7.25;;
76131;SDS011;64877;50.994;13.650;2023-01-28T03:37:10;14.82;;;7.95;;
76131;SDS011;64877;50.994;13.650;2023-01-28T03:39:39;14.05;;;6.50;;
76131;SDS011;64877;50.994;13.650;2023-01-28T03:42:08;9.60;;;5.82;;
76131;SDS011;64877;50.994;13.650;2023-01-28T03:44:37;13.43;;;6.82;;
76131;SDS011;64877;50.994;13.650;2023-01-28T03:49:44;11.10;;;5.77;;
76131;SDS011;64877;50.994;13.650;2023-01-28T03:52:13;10.15;;;6.50;;
76131;SDS011;64877;50.994;13.650;2023-01-28T03:54:39;9.60;;;6.43;;
76131;SDS011;64877;50.994;13.650;2023-01-28T03:57:05;11.48;;;6.25;;
76131;SDS011;64877;50.994;13.650;2023-01-28T03:59:31;8.50;;;5.20;;
76131;SDS011;64877;50.994;13.650;2023-01-28T04:01:57;8.68;;;5.35;;
76131;SDS011;64877;50.994;13.650;2023-01-28T04:04:22;8.13;;;5.28;;
76131;SDS011;64877;50.994;13.650;2023-01-28T04:06:51;7.90;;;5.13;;
76131;SDS011;64877;50.994;13.650;2023-01-28T04:09:18;9.23;;;5.68;;
76131;SDS011;64877;50.994;13.650;2023-01-28T04:11:47;9.80;;;4.70;;
76131;SDS011;64877;50.994;13.650;2023-01-28T04:14:13;10.68;;;4.70;;
76131;SDS011;64877;50.994;13.650;2023-01-28T04:16:39;7.18;;;4.18;;
76131;SDS011;64877;50.994;13.650;2023-01-28T04:19:05;7.05;;;4.47;;
76131;SDS011;64877;50.994;13.650;2023-01-28T04:21:31;6.93;;;4.35;;
76131;SDS011;64877;50.994;13.650;2023-01-28T04:23:56;10.52;;;4.72;;
76131;SDS011;64877;50.994;13.650;2023-01-28T04:26:21;9.50;;;4.45;;
76131;SDS011;64877;50.994;13.650;2023-01-28T04:28:47;8.43;;;4.07;;
76131;SDS011;64877;50.994;13.650;2023-01-28T04:31:12;7.28;;;4.38;;
76131;SDS011;64877;50.994;13.650;2023-01-28T04:33:37;9.63;;;4.70;;
76131;SDS011;64877;50.994;13.650;2023-01-28T04:36:03;9.80;;;4.05;;
76131;SDS011;64877;50.994;13.650;2023-01-28T04:38:28;7.68;;;4.60;;
76131;SDS011;64877;50.994;13.650;2023-01-28T04:40:54;9.43;;;4.30;;
76131;SDS011;64877;50.994;13.650;2023-01-28T04:43:19;7.97;;;3.78;;
76131;SDS011;64877;50.994;13.650;2023-01-28T04:45:45;6.93;;;4.18;;
76131;SDS011;64877;50.994;13.650;2023-01-28T04:48:12;9.93;;;4.47;;
76131;SDS011;64877;50.994;13.650;2023-01-28T04:50:38;12.27;;;4.20;;
76131;SDS011;64877;50.994;13.650;2023-01-28T04:53:03;7.97;;;3.80;;
76131;SDS011;64877;50.994;13.650;2023-01-28T04:55:28;7.25;;;3.53;;
76131;SDS011;64877;50.994;13.650;2023-01-28T04:57:54;7.63;;;3.85;;
76131;SDS011;64877;50.994;13.650;2023-01-28T05:00:19;8.52;;;3.83;;
76131;SDS011;64877;50.994;13.650;2023-01-28T05:02:45;6.63;;;3.63;;
76131;SDS011;64877;50.994;13.650;2023-01-28T05:05:10;7.80;;;3.70;;
76131;SDS011;64877;50.994;13.650;2023-01-28T05:07:36;6.35;;;3.85;;
76131;SDS011;64877;50.994;13.650;2023-01-28T05:10:02;8.45;;;3.72;;
76131;SDS011;64877;50.994;13.650;2023-01-28T05:12:28;8.13;;;3.50;;
76131;SDS011;64877;50.994;13.650;2023-01-28T05:14:56;7.47;;;4.10;;
76131;SDS011;64877;50.994;13.650;2023-01-28T05:17:24;9.30;;;4.05;;
76131;SDS011;64877;50.994;13.650;2023-01-28T05:19:50;6.43;;;3.92;;
76131;SDS011;64877;50.994;13.650;2023-01-28T05:22:15;9.57;;;4.03;;
76131;SDS011;64877;50.994;13.650;2023-01-28T05:24:41;7.32;;;3.72;;
76131;SDS011;64877;50.994;13.650;2023-01-28T05:27:06;6.13;;;3.80;;
76131;SDS011;64877;50.994;13.650;2023-01-28T05:29:31;7.63;;;4.03;;
76131;SDS011;64877;50.994;13.650;2023-01-28T05:31:57;7.57;;;3.70;;
76131;SDS011;64877;50.994;13.650;2023-01-28T05:34:22;6.57;;;3.33;;
76131;SDS011;64877;50.994;13.650;2023-01-28T05:36:47;7.80;;;3.70;;
76131;SDS011;64877;50.994;13.650;2023-01-28T05:39:13;7.72;;;3.63;;
76131;SDS011;64877;50.994;13.650;2023-01-28T05:41:38;8.48;;;3.78;;
76131;SDS011;64877;50.994;13.650;2023-01-28T05:44:03;5.28;;;3.45;;
76131;SDS011;64877;50.994;13.650;2023-01-28T05:46:29;9.32;;;3.97;;
76131;SDS011;64877;50.994;13.650;2023-01-28T05:48:54;7.22;;;3.88;;
76131;SDS011;64877;50.994;13.650;2023-01-28T05:51:20;6.32;;;3.90;;
76131;SDS011;64877;50.994;13.650;2023-01-28T05:53:45;5.68;;;3.60;;
76131;SDS011;64877;50.994;13.650;2023-01-28T05:56:10;8.77;;;4.05;;
76131;SDS011;64877;50.994;13.650;2023-01-28T05:58:36;5.80;;;3.67;;
76131;SDS011;64877;50.994;13.650;2023-01-28T06:01:01;7.75;;;3.90;;
76131;SDS011;64877;50.994;13.650;2023-01-28T06:03:27;6.60;;;3.95;;
76131;SDS011;64877;50.994;13.650;2023-01-28T06:05:52;8.10;;;3.88;;
76131;SDS011;64877;50.994;13.650;2023-01-28T06:08:18;9.02;;;4.05;;
76131;SDS011;64877;50.994;13.650;2023-01-28T06:10:43;6.97;;;4.10;;
76131;SDS011;64877;50.994;13.650;2023-01-28T06:13:09;5.57;;;3.25;;
76131;SDS011;64877;50.994;13.650;2023-01-28T06:15:35;7.75;;;4.45;;
76131;SDS011;64877;50.994;13.650;2023-01-28T06:18:00;8.00;;;4.65;;
76131;SDS011;64877;50.994;13.650;2023-01-28T06:20:26;6.93;;;3.85;;
76131;SDS011;64877;50.994;13.650;2023-01-28T06:22:51;11.77;;;3.97;;
76131;SDS011;64877;50.994;13.650;2023-01-28T06:25:17;7.50;;;4.35;;
76131;SDS011;64877;50.994;13.650;2023-01-28T06:27:42;6.13;;;3.97;;
76131;SDS011;64877;50.994;13.650;2023-01-28T06:30:08;5.53;;;3.45;;
76131;SDS011;64877;50.994;13.650;2023-01-28T06:32:34;6.30;;;3.40;;
76131;SDS011;64877;50.994;13.650;2023-01-28T06:35:00;10.38;;;4.10;;
76131;SDS011;64877;50.994;13.650;2023-01-28T06:37:25;6.78;;;4.07;;
76131;SDS011;64877;50.994;13.650;2023-01-28T06:39:50;4.68;;;3.10;;
76131;SDS011;64877;50.994;13.650;2023-01-28T06:42:16;6.60;;;3.33;;
76131;SDS011;64877;50.994;13.650;2023-01-28T06:44:42;7.88;;;3.80;;
76131;SDS011;64877;50.994;13.650;2023-01-28T06:47:07;8.80;;;3.78;;
76131;SDS011;64877;50.994;13.650;2023-01-28T06:49:34;8.02;;;3.85;;
76131;SDS011;64877;50.994;13.650;2023-01-28T06:52:00;4.97;;;3.15;;
76131;SDS011;64877;50.994;13.650;2023-01-28T06:54:26;4.90;;;3.30;;
76131;SDS011;64877;50.994;13.650;2023-01-28T06:56:51;5.72;;;3.55;;
76131;SDS011;64877;50.994;13.650;2023-01-28T06:59:16;7.15;;;3.35;;
76131;SDS011;64877;50.994;13.650;2023-01-28T07:01:42;7.50;;;3.80;;
76131;SDS011;64877;50.994;13.650;2023-01-28T07:04:07;8.55;;;3.92;;
76131;SDS011;64877;50.994;13.650;2023-01-28T07:06:33;6.57;;;3.95;;
76131;SDS011;64877;50.994;13.650;2023-01-28T07:08:58;8.13;;;4.40;;
76131;SDS011;64877;50.994;13.650;2023-01-28T07:11:23;6.20;;;4.05;;
76131;SDS011;64877;50.994;13.650;2023-01-28T07:13:49;8.32;;;4.55;;
76131;SDS011;64877;50.994;13.650;2023-01-28T07:16:15;7.18;;;4.20;;
76131;SDS011;64877;50.994;13.650;2023-01-28T07:18:41;7.57;;;3.90;;
76131;SDS011;64877;50.994;13.650;2023-01-28T07:21:06;7.95;;;3.75;;
76131;SDS011;64877;50.994;13.650;2023-01-28T07:23:32;8.77;;;3.45;;
76131;SDS011;64877;50.994;13.650;2023-01-28T07:26:01;9.93;;;3.63;;
76131;SDS011;64877;50.994;13.650;2023-01-28T07:28:27;7.45;;;3.80;;
76131;SDS011;64877;50.994;13.650;2023-01-28T07:30:53;5.25;;;2.80;;
76131;SDS011;64877;50.994;13.650;2023-01-28T07:33:18;4.90;;;2.83;;
76131;SDS011;64877;50.994;13.650;2023-01-28T07:35:44;5.85;;;3.38;;
76131;SDS011;64877;50.994;13.650;2023-01-28T07:38:10;7.50;;;3.58;;
76131;SDS011;64877;50.994;13.650;2023-01-28T07:40:36;4.72;;;2.85;;
76131;SDS011;64877;50.994;13.650;2023-01-28T07:43:01;5.60;;;3.65;;
76131;SDS011;64877;50.994;13.650;2023-01-28T07:45:27;5.47;;;3.38;;
76131;SDS011;64877;50.994;13.650;2023-01-28T07:47:58;5.85;;;3.45;;
76131;SDS011;64877;50.994;13.650;2023-01-28T07:50:26;7.05;;;3.45;;
76131;SDS011;64877;50.994;13.650;2023-01-28T07:52:53;7.28;;;4.07;;
76131;SDS011;64877;50.994;13.650;2023-01-28T07:55:19;6.13;;;3.33;;
76131;SDS011;64877;50.994;13.650;2023-01-28T07:57:48;4.93;;;2.97;;
76131;SDS011;64877;50.994;13.650;2023-01-28T08:00:18;4.97;;;3.15;;
76131;SDS011;64877;50.994;13.650;2023-01-28T08:02:46;8.88;;;2.95;;
76131;SDS011;64877;50.994;13.650;2023-01-28T08:05:18;6.88;;;2.60;;
76131;SDS011;64877;50.994;13.650;2023-01-28T08:07:45;6.55;;;2.83;;
76131;SDS011;64877;50.994;13.650;2023-01-28T08:10:12;6.68;;;3.00;;
76131;SDS011;64877;50.994;13.650;2023-01-28T08:12:39;6.63;;;2.45;;
76131;SDS011;64877;50.994;13.650;2023-01-28T08:15:05;6.50;;;2.50;;
76131;SDS011;64877;50.994;13.650;2023-01-28T08:17:31;8.75;;;3.63;;
76131;SDS011;64877;50.994;13.650;2023-01-28T08:19:56;5.80;;;2.47;;
76131;SDS011;64877;50.994;13.650;2023-01-28T08:22:25;4.70;;;2.97;;
76131;SDS011;64877;50.994;13.650;2023-01-28T08:24:51;4.90;;;2.92;;
76131;SDS011;64877;50.994;13.650;2023-01-28T08:27:16;3.80;;;2.22;;
76131;SDS011;64877;50.994;13.650;2023-01-28T08:29:41;6.00;;;3.28;;
76131;SDS011;64877;50.994;13.650;2023-01-28T08:32:08;8.85;;;3.28;;
76131;SDS011;64877;50.994;13.650;2023-01-28T08:34:34;5.38;;;2.90;;
76131;SDS011;64877;50.994;13.650;2023-01-28T08:37:00;7.53;;;3.20;;
76131;SDS011;64877;50.994;13.650;2023-01-28T08:39:25;5.85;;;2.85;;
76131;SDS011;64877;50.994;13.650;2023-01-28T08:41:50;4.00;;;2.33;;
76131;SDS011;64877;50.994;13.650;2023-01-28T08:44:16;5.72;;;2.53;;
76131;SDS011;64877;50.994;13.650;2023-01-28T08:46:41;5.55;;;2.35;;
76131;SDS011;64877;50.994;13.650;2023-01-28T08:49:07;6.75;;;3.20;;
76131;SDS011;64877;50.994;13.650;2023-01-28T08:51:32;4.75;;;2.40;;
76131;SDS011;64877;50.994;13.650;2023-01-28T08:53:57;4.85;;;2.20;;
76131;SDS011;64877;50.994;13.650;2023-01-28T08:56:23;4.53;;;2.45;;
76131;SDS011;64877;50.994;13.650;2023-01-28T08:58:48;5.78;;;2.70;;
76131;SDS011;64877;50.994;13.650;2023-01-28T09:01:13;3.67;;;2.40;;
76131;SDS011;64877;50.994;13.650;2023-01-28T09:03:39;4.45;;;2.63;;
76131;SDS011;64877;50.994;13.650;2023-01-28T09:06:04;5.53;;;2.33;;
76131;SDS011;64877;50.994;13.650;2023-01-28T09:08:30;3.85;;;2.42;;
76131;SDS011;64877;50.994;13.650;2023-01-28T09:10:56;4.57;;;2.42;;
76131;SDS011;64877;50.994;13.650;2023-01-28T09:13:22;5.32;;;2.70;;
76131;SDS011;64877;50.994;13.650;2023-01-28T09:15:48;3.63;;;2.30;;
76131;SDS011;64877;50.994;13.650;2023-01-28T09:18:13;6.15;;;2.30;;
76131;SDS011;64877;50.994;13.650;2023-01-28T09:20:39;4.38;;;2.20;;
76131;SDS011;64877;50.994;13.650;2023-01-28T09:23:04;4.18;;;2.65;;
76131;SDS011;64877;50.994;13.650;2023-01-28T09:25:30;3.38;;;2.30;;
76131;SDS011;64877;50.994;13.650;2023-01-28T09:27:56;5.60;;;3.08;;
76131;SDS011;64877;50.994;13.650;2023-01-28T09:30:22;5.18;;;3.10;;
76131;SDS011;64877;50.994;13.650;2023-01-28T09:32:51;4.88;;;2.25;;
76131;SDS011;64877;50.994;13.650;2023-01-28T09:35:17;5.50;;;2.63;;
76131;SDS011;64877;50.994;13.650;2023-01-28T09:37:43;6.18;;;2.83;;
76131;SDS011;64877;50.994;13.650;2023-01-28T09:45:47;8.63;;;2.80;;
76131;SDS011;64877;50.994;13.650;2023-01-28T09:48:15;4.97;;;2.25;;
76131;SDS011;64877;50.994;13.650;2023-01-28T09:50:46;4.72;;;2.38;;
76131;SDS011;64877;50.994;13.650;2023-01-28T09:53:18;9.40;;;2.72;;
76131;SDS011;64877;50.994;13.650;2023-01-28T09:55:50;5.05;;;2.55;;
76131;SDS011;64877;50.994;13.650;2023-01-28T09:58:20;7.05;;;2.25;;
76131;SDS011;64877;50.994;13.650;2023-01-28T10:16:37;3.77;;;1.10;;
76131;SDS011;64877;50.994;13.650;2023-01-28T10:19:11;3.50;;;1.90;;
76131;SDS011;64877;50.994;13.650;2023-01-28T10:22:01;8.10;;;2.35;;
76131;SDS011;64877;50.994;13.650;2023-01-28T10:24:33;4.60;;;1.70;;
76131;SDS011;64877;50.994;13.650;2023-01-28T10:27:00;4.85;;;2.00;;
76131;SDS011;64877;50.994;13.650;2023-01-28T10:29:43;5.32;;;2.30;;
76131;SDS011;64877;50.994;13.650;2023-01-28T10:35:03;5.40;;;1.95;;
76131;SDS011;64877;50.994;13.650;2023-01-28T10:37:33;3.28;;;1.88;;
76131;SDS011;64877;50.994;13.650;2023-01-28T10:40:00;4.63;;;1.95;;
76131;SDS011;64877;50.994;13.650;2023-01-28T10:42:28;2.85;;;1.95;;
76131;SDS011;64877;50.994;13.650;2023-01-28T10:45:17;3.63;;;1.90;;
76131;SDS011;64877;50.994;13.650;2023-01-28T10:47:55;5.35;;;2.80;;
76131;SDS011;64877;50.994;13.650;2023-01-28T10:50:27;7.88;;;3.10;;
76131;SDS011;64877;50.994;13.650;2023-01-28T10:52:58;5.60;;;2.63;;
76131;SDS011;64877;50.994;13.650;2023-01-28T10:55:25;5.82;;;2.50;;
76131;SDS011;64877;50.994;13.650;2023-01-28T10:58:17;4.78;;;2.67;;
76131;SDS011;64877;50.994;13.650;2023-01-28T11:00:45;5.65;;;3.00;;
76131;SDS011;64877;50.994;13.650;2023-01-28T11:03:20;5.43;;;2.15;;
76131;SDS011;64877;50.994;13.650;2023-01-28T11:05:50;3.58;;;1.65;;
76131;SDS011;64877;50.994;13.650;2023-01-28T11:08:17;3.33;;;1.73;;
76131;SDS011;64877;50.994;13.650;2023-01-28T11:10:44;3.63;;;2.05;;
76131;SDS011;64877;50.994;13.650;2023-01-28T11:13:28;5.97;;;2.10;;
76131;SDS011;64877;50.994;13.650;2023-01-28T11:15:57;3.95;;;1.90;;
76131;SDS011;64877;50.994;13.650;2023-01-28T11:18:26;4.15;;;1.90;;
76131;SDS011;64877;50.994;13.650;2023-01-28T11:20:57;4.80;;;2.22;;
76131;SDS011;64877;50.994;13.650;2023-01-28T11:25:57;3.25;;;2.03;;
76131;SDS011;64877;50.994;13.650;2023-01-28T11:28:40;6.65;;;2.00;;
76131;SDS011;64877;50.994;13.650;2023-01-28T11:31:06;4.18;;;2.22;;
76131;SDS011;64877;50.994;13.650;2023-01-28T11:33:37;4.15;;;2.28;;
76131;SDS011;64877;50.994;13.650;2023-01-28T11:36:12;7.75;;;2.15;;
76131;SDS011;64877;50.994;13.650;2023-01-28T11:38:46;5.28;;;2.00;;
76131;SDS011;64877;50.994;13.650;2023-01-28T11:41:13;4.43;;;1.98;;
76131;SDS011;64877;50.994;13.650;2023-01-28T11:43:40;6.53;;;2.20;;
76131;SDS011;64877;50.994;13.650;2023-01-28T11:46:19;3.97;;;1.73;;
76131;SDS011;64877;50.994;13.650;2023-01-28T11:49:06;3.30;;;1.95;;
76131;SDS011;64877;50.994;13.650;2023-01-28T11:54:53;3.50;;;1.98;;
76131;SDS011;64877;50.994;13.650;2023-01-28T12:05:44;5.50;;;2.00;;
76131;SDS011;64877;50.994;13.650;2023-01-28T12:08:28;4.25;;;2.25;;
76131;SDS011;64877;50.994;13.650;2023-01-28T12:14:14;4.35;;;2.20;;
76131;SDS011;64877;50.994;13.650;2023-01-28T12:19:28;4.13;;;2.20;;
76131;SDS011;64877;50.994;13.650;2023-01-28T12:30:24;4.60;;;2.35;;
76131;SDS011;64877;50.994;13.650;2023-01-28T12:38:38;4.00;;;2.28;;
76131;SDS011;64877;50.994;13.650;2023-01-28T12:41:15;6.20;;;2.42;;
76131;SDS011;64877;50.994;13.650;2023-01-28T12:43:46;5.78;;;2.78;;
76131;SDS011;64877;50.994;13.650;2023-01-28T12:46:17;5.05;;;2.63;;
76131;SDS011;64877;50.994;13.650;2023-01-28T12:48:56;6.32;;;3.00;;
76131;SDS011;64877;50.994;13.650;2023-01-28T12:52:16;5.90;;;2.90;;
76131;SDS011;64877;50.994;13.650;2023-01-28T12:57:13;3.88;;;2.40;;
76131;SDS011;64877;50.994;13.650;2023-01-28T12:59:46;5.97;;;2.65;;
76131;SDS011;64877;50.994;13.650;2023-01-28T13:02:34;4.20;;;2.05;;
76131;SDS011;64877;50.994;13.650;2023-01-28T13:05:15;5.75;;;2.40;;
76131;SDS011;64877;50.994;13.650;2023-01-28T13:07:52;7.15;;;2.88;;
76131;SDS011;64877;50.994;13.650;2023-01-28T13:10:29;4.93;;;2.30;;
76131;SDS011;64877;50.994;13.650;2023-01-28T13:12:56;5.15;;;2.25;;
76131;SDS011;64877;50.994;13.650;2023-01-28T13:15:23;4.40;;;2.20;;
76131;SDS011;64877;50.994;13.650;2023-01-28T13:17:53;4.80;;;2.08;;
76131;SDS011;64877;50.994;13.650;2023-01-28T13:23:21;4.63;;;1.92;;
76131;SDS011;64877;50.994;13.650;2023-01-28T13:25:48;3.85;;;2.17;;
76131;SDS011;64877;50.994;13.650;2023-01-28T13:28:31;4.07;;;1.65;;
76131;SDS011;64877;50.994;13.650;2023-01-28T13:31:02;6.00;;;1.85;;
76131;SDS011;64877;50.994;13.650;2023-01-28T13:33:31;3.67;;;2.00;;
76131;SDS011;64877;50.994;13.650;2023-01-28T13:38:42;5.07;;;2.60;;
76131;SDS011;64877;50.994;13.650;2023-01-28T13:41:09;7.13;;;2.15;;
76131;SDS011;64877;50.994;13.650;2023-01-28T13:43:37;5.90;;;2.70;;
76131;SDS011;64877;50.994;13.650;2023-01-28T13:51:08;6.93;;;2.50;;
76131;SDS011;64877;50.994;13.650;2023-01-28T13:56:40;5.75;;;2.80;;
76131;SDS011;64877;50.994;13.650;2023-01-28T14:16:32;4.37;;;2.20;;
76131;SDS011;64877;50.994;13.650;2023-01-28T14:18:51;4.35;;;2.50;;
76131;SDS011;64877;50.994;13.650;2023-01-28T14:21:17;3.22;;;2.10;;
76131;SDS011;64877;50.994;13.650;2023-01-28T14:23:52;5.57;;;2.25;;
76131;SDS011;64877;50.994;13.650;2023-01-28T14:31:46;4.60;;;1.90;;
76131;SDS011;64877;50.994;13.650;2023-01-28T14:34:16;6.47;;;2.90;;
76131;SDS011;64877;50.994;13.650;2023-01-28T14:36:43;4.93;;;2.30;;
76131;SDS011;64877;50.994;13.650;2023-01-28T14:39:18;4.05;;;2.22;;
76131;SDS011;64877;50.994;13.650;2023-01-28T14:41:47;5.22;;;2.00;;
76131;SDS011;64877;50.994;13.650;2023-01-28T14:44:37;6.03;;;2.67;;
76131;SDS011;64877;50.994;13.650;2023-01-28T14:50:13;6.25;;;2.25;;
76131;SDS011;64877;50.994;13.650;2023-01-28T14:55:33;5.25;;;2.33;;
76131;SDS011;64877;50.994;13.650;2023-01-28T14:58:19;4.28;;;2.28;;
76131;SDS011;64877;50.994;13.650;2023-01-28T15:00:54;5.18;;;2.15;;
76131;SDS011;64877;50.994;13.650;2023-01-28T15:03:21;4.47;;;2.03;;
76131;SDS011;64877;50.994;13.650;2023-01-28T15:05:47;5.15;;;2.42;;
76131;SDS011;64877;50.994;13.650;2023-01-28T15:08:21;4.63;;;2.75;;
76131;SDS011;64877;50.994;13.650;2023-01-28T15:10:47;6.63;;;3.30;;
76131;SDS011;64877;50.994;13.650;2023-01-28T15:13:18;4.70;;;2.63;;
76131;SDS011;64877;50.994;13.650;2023-01-28T15:15:49;5.65;;;2.10;;
76131;SDS011;64877;50.994;13.650;2023-01-28T15:18:16;5.00;;;2.65;;
76131;SDS011;64877;50.994;13.650;2023-01-28T15:20:49;7.63;;;3.08;;
76131;SDS011;64877;50.994;13.650;2023-01-28T15:23:24;4.78;;;2.50;;
76131;SDS011;64877;50.994;13.650;2023-01-28T15:25:52;4.20;;;2.47;;
76131;SDS011;64877;50.994;13.650;2023-01-28T15:28:29;5.03;;;2.58;;
76131;SDS011;64877;50.994;13.650;2023-01-28T15:30:56;5.28;;;2.10;;
76131;SDS011;64877;50.994;13.650;2023-01-28T15:33:23;4.32;;;2.47;;
76131;SDS011;64877;50.994;13.650;2023-01-28T15:35:52;4.78;;;2.15;;
76131;SDS011;64877;50.994;13.650;2023-01-28T15:38:20;5.47;;;2.70;;
76131;SDS011;64877;50.994;13.650;2023-01-28T15:40:52;4.45;;;2.38;;
76131;SDS011;64877;50.994;13.650;2023-01-28T15:43:24;5.10;;;2.58;;
76131;SDS011;64877;50.994;13.650;2023-01-28T15:45:55;6.43;;;2.70;;
76131;SDS011;64877;50.994;13.650;2023-01-28T15:48:23;7.85;;;2.60;;
76131;SDS011;64877;50.994;13.650;2023-01-28T15:50:57;4.32;;;2.38;;
76131;SDS011;64877;50.994;13.650;2023-01-28T15:53:54;4.43;;;1.75;;
76131;SDS011;64877;50.994;13.650;2023-01-28T15:56:23;3.35;;;1.58;;
76131;SDS011;64877;50.994;13.650;2023-01-28T15:58:51;3.88;;;1.85;;
76131;SDS011;64877;50.994;13.650;2023-01-28T16:01:18;4.13;;;1.80;;
76131;SDS011;64877;50.994;13.650;2023-01-28T16:03:45;2.90;;;1.60;;
76131;SDS011;64877;50.994;13.650;2023-01-28T16:06:23;3.20;;;1.35;;
76131;SDS011;64877;50.994;13.650;2023-01-28T16:08:57;4.53;;;1.80;;
76131;SDS011;64877;50.994;13.650;2023-01-28T16:13:54;5.03;;;2.10;;
76131;SDS011;64877;50.994;13.650;2023-01-28T16:16:25;5.70;;;2.60;;
76131;SDS011;64877;50.994;13.650;2023-01-28T16:18:52;6.47;;;2.78;;
76131;SDS011;64877;50.994;13.650;2023-01-28T16:21:30;6.47;;;2.78;;
76131;SDS011;64877;50.994;13.650;2023-01-28T16:27:18;6.90;;;2.85;;
76131;SDS011;64877;50.994;13.650;2023-01-28T16:29:46;3.47;;;1.90;;
76131;SDS011;64877;50.994;13.650;2023-01-28T16:32:33;3.60;;;2.03;;
76131;SDS011;64877;50.994;13.650;2023-01-28T16:35:13;4.00;;;2.22;;
76131;SDS011;64877;50.994;13.650;2023-01-28T16:37:42;3.25;;;2.13;;
76131;SDS011;64877;50.994;13.650;2023-01-28T16:40:08;3.80;;;1.75;;
76131;SDS011;64877;50.994;13.650;2023-01-28T16:42:35;3.47;;;1.90;;
76131;SDS011;64877;50.994;13.650;2023-01-28T16:45:01;5.28;;;2.08;;
76131;SDS011;64877;50.994;13.650;2023-01-28T16:47:26;4.88;;;2.15;;
76131;SDS011;64877;50.994;13.650;2023-01-28T16:49:52;3.83;;;1.80;;
76131;SDS011;64877;50.994;13.650;2023-01-28T16:52:17;4.38;;;1.73;;
76131;SDS011;64877;50.994;13.650;2023-01-28T16:54:43;6.60;;;2.00;;
76131;SDS011;64877;50.994;13.650;2023-01-28T16:57:18;3.30;;;1.63;;